Portada
METAR-TAF:

METAR-TAF

Aeroports :

Bonaire, Antilles Neerlandeses

latitud: 12-09N, longitud: 068-17W, altitud: 6 m

Observació

L'informe es va fer fa 22 minuts, a les 03:55 UTC
Vent 4 kt del Est/Nord-Est
Temperatura 27°C
Humitat 89%
Pressió 1011 hPa
Visibilitat 10 km o més
pluja

METAR: TNCB 290355Z AUTO 07004KT 9999 RA FEW018/// 27/25 Q1011

Hora: 00:17 (04:17 UTC)

Pronòstic

L'informe es va fer fa 5 hores i 11 minuts, a les 23:06 UTC
Pronòstic vàlid del 29 a les 00 UTC al 30 a les 06 UTC
Vent 8 kt del Est
Visibilitat 10 km o més
Núvols disperses a una alçada de 1800 ft
Probabilitat 30% :
Temporalment
l' 29 a les 00 UTC al 30 a les 06 UTC
Vent 15 kt amb direcció variable
Visibilitat: 4000 m
Núvols disperses a una alçada de 1400 ft, Cumulonimbus.
Cel ennuvolat a una alçada de 1800 ft
xàfecs de pluja, tempesta, pluja

TAF: TNCB 282306Z 2900/3006 09008KT 9999 SCT018 PROB30 TEMPO 2900/3006 VRB15KT 4000 SHRA TSRA SCT014CB BKN018

Observacions i pronòstics meteorològics de més de 4000 aeroports (METAR i TAF).

Les estacions disponibles són els punts grocs i vermells al mapa.

Posi el ratolí al punt desitjat per veure el nom de l'estació.

Feu clic per veure les observacions i els pronòstics meteorològics.

Per canviar el mapa: feu clic els botons verds amb una creu de color negre per apropar; al botó verd amb un guió per allunyar la imatge; o en les fletxes verdes per a mapes adjacents.


METAR-TAF: